CheckWX is a tool to help pilots better visualize weather data.  It is not intended as a substitute for an official pre-flight weather briefing.

10:08:13 UTC

PLCH TAF
Cassidy International Airport
Banana, Kiribati
TAF PLCH 260521Z 2606/2706 12009KT 9999 SCT018 BKN100

Jun-26@
06:00 UTC

Jun-26 @ 06:00 UTC

Jun-27@
06:00 UTC

Jun-27 @ 06:00 UTC

TAF PLCH 260521Z 2606/2706 12009KT 9999 SCT018 BKN100
Wind
  • 120° at 9 KTS
Cloud Levels
  • Scattered at 1,800' AGL
  • Broken at 10,000' AGL